createdAt,value
2018-01-24T00:01:49.982Z,101839.60
2018-01-24T00:04:19.981Z,101844.20
2018-01-24T00:06:49.040Z,101842.84
2018-01-24T00:09:18.871Z,101843.56
2018-01-24T00:11:53.379Z,101836.74
2018-01-24T00:14:22.579Z,101845.38
2018-01-24T00:16:51.642Z,101849.96
2018-01-24T00:19:26.458Z,101857.48
2018-01-24T00:21:55.944Z,101869.11
2018-01-24T00:24:24.993Z,101863.96
2018-01-24T00:26:54.954Z,101884.77
2018-01-24T00:29:24.291Z,101877.41
2018-01-24T00:31:53.358Z,101877.91
2018-01-24T00:34:22.451Z,101880.63
2018-01-24T00:36:51.429Z,101881.91
2018-01-24T00:39:20.543Z,101885.38
2018-01-24T00:41:49.710Z,101887.69
2018-01-24T00:44:18.728Z,101882.84
2018-01-24T00:46:48.683Z,101883.91
2018-01-24T00:49:18.601Z,101885.76
2018-01-24T00:51:47.591Z,101883.02
2018-01-24T00:54:19.116Z,101876.35
2018-01-24T00:56:50.099Z,101887.47
2018-01-24T00:59:21.039Z,101877.19
2018-01-24T01:01:50.248Z,101881.37
2018-01-24T01:04:20.584Z,101872.51
2018-01-24T01:06:49.736Z,101884.76
2018-01-24T01:09:18.800Z,101879.16
2018-01-24T01:11:49.703Z,101880.34
2018-01-24T01:14:19.026Z,101880.66
2018-01-24T01:16:48.348Z,101884.81
2018-01-24T01:19:20.817Z,101892.31
2018-01-24T01:21:50.421Z,101893.53
2018-01-24T01:24:19.414Z,101898.16
2018-01-24T01:26:48.352Z,101904.05
2018-01-24T01:29:20.066Z,101906.87
2018-01-24T01:31:49.057Z,101905.02
2018-01-24T01:34:21.153Z,101902.91
2018-01-24T01:36:51.138Z,101913.33
2018-01-24T01:39:20.993Z,101914.90
2018-01-24T01:41:50.048Z,101924.50
2018-01-24T01:44:19.555Z,101928.66
2018-01-24T01:46:48.959Z,101926.31
2018-01-24T01:49:19.674Z,101930.58
2018-01-24T01:51:48.830Z,101923.21
2018-01-24T01:54:18.700Z,101924.89
2018-01-24T01:56:49.750Z,101929.84
2018-01-24T01:59:20.068Z,101928.97
2018-01-24T02:01:50.632Z,101928.17
2018-01-24T02:04:23.385Z,101932.91
2018-01-24T02:06:55.299Z,101937.59
2018-01-24T02:09:25.781Z,101929.12
2018-01-24T02:11:55.058Z,101944.20
2018-01-24T02:14:24.011Z,101943.75
2018-01-24T02:16:54.227Z,101950.28
2018-01-24T02:19:24.030Z,101948.97
2018-01-24T02:21:53.952Z,101959.58
2018-01-24T02:24:22.962Z,101958.28
2018-01-24T02:26:52.003Z,101953.01
2018-01-24T02:29:26.213Z,101951.45
2018-01-24T02:31:55.312Z,101959.95
2018-01-24T02:34:24.558Z,101961.17
2018-01-24T02:36:58.623Z,101965.95
2018-01-24T02:39:28.533Z,101969.20
2018-01-24T02:42:02.033Z,101967.87
2018-01-24T02:44:39.830Z,101976.30
2018-01-24T02:47:09.797Z,101975.00
2018-01-24T02:49:38.837Z,101979.16
2018-01-24T02:52:08.002Z,101981.05
2018-01-24T02:54:37.136Z,101986.72
2018-01-24T02:57:06.487Z,101983.81
2018-01-24T02:59:36.254Z,101977.52
2018-01-24T03:02:06.267Z,101980.83
2018-01-24T03:04:37.276Z,101979.47
2018-01-24T03:07:06.217Z,101982.51
2018-01-24T03:09:36.365Z,101985.70
2018-01-24T03:12:06.272Z,101989.10
2018-01-24T03:14:35.825Z,101995.05
2018-01-24T03:17:06.313Z,102003.59
2018-01-24T03:19:36.640Z,102008.61
2018-01-24T03:22:05.821Z,102010.37
2018-01-24T03:24:35.145Z,102014.95
2018-01-24T03:27:04.245Z,102009.10
2018-01-24T03:29:33.539Z,102011.84
2018-01-24T03:32:02.659Z,102017.97
2018-01-24T03:34:32.860Z,102027.83
2018-01-24T03:37:02.184Z,102022.94
2018-01-24T03:39:32.536Z,102031.13
2018-01-24T03:42:01.624Z,102033.66
2018-01-24T03:44:31.748Z,102033.73
2018-01-24T03:47:02.673Z,102037.07
2018-01-24T03:49:31.545Z,102050.84
2018-01-24T03:52:02.485Z,102052.14
2018-01-24T03:54:32.854Z,102052.31
2018-01-24T03:57:02.844Z,102054.67
2018-01-24T03:59:31.731Z,102056.92
2018-01-24T04:02:00.794Z,102051.95
2018-01-24T04:04:29.912Z,102064.03
2018-01-24T04:06:58.963Z,102063.53
2018-01-24T04:09:29.653Z,102066.88
2018-01-24T04:11:59.298Z,102067.14
2018-01-24T04:14:28.315Z,102071.23
2018-01-24T04:16:58.167Z,102070.19
2018-01-24T04:19:27.359Z,102080.96
2018-01-24T04:21:56.538Z,102078.42
2018-01-24T04:24:26.133Z,102080.66
2018-01-24T04:26:55.021Z,102088.45
2018-01-24T04:29:24.095Z,102087.27
2018-01-24T04:31:55.190Z,102097.73
2018-01-24T04:41:13.221Z,102113.22
2018-01-24T04:43:42.364Z,102117.19
2018-01-24T04:46:11.275Z,102125.68
2018-01-24T04:48:46.370Z,102127.68
2018-01-24T04:51:17.055Z,102129.97
2018-01-24T04:53:46.037Z,102136.19
2018-01-24T04:56:15.291Z,102135.20
2018-01-24T04:58:44.314Z,102142.33
2018-01-24T05:01:13.322Z,102141.53
2018-01-24T05:03:43.340Z,102145.42
2018-01-24T05:06:12.496Z,102158.00
2018-01-24T05:08:42.724Z,102139.39
2018-01-24T05:11:12.125Z,102152.59
2018-01-24T05:13:42.797Z,102153.03
2018-01-24T05:16:11.843Z,102150.97
2018-01-24T05:18:42.680Z,102154.63
2018-01-24T05:21:12.599Z,102153.41
2018-01-24T05:23:42.616Z,102152.95
2018-01-24T05:26:14.066Z,102161.55
2018-01-24T05:28:44.088Z,102159.21
2018-01-24T05:31:13.110Z,102160.05
2018-01-24T05:33:44.708Z,102162.27
2018-01-24T05:36:13.838Z,102169.52
2018-01-24T05:38:43.029Z,102166.77
2018-01-24T05:41:14.272Z,102170.81
2018-01-24T05:43:43.984Z,102174.62
2018-01-24T05:46:16.803Z,102181.58
2018-01-24T05:48:46.160Z,102186.12
2018-01-24T05:51:15.301Z,102187.69
2018-01-24T05:53:45.383Z,102199.03
2018-01-24T05:56:14.684Z,102205.14
2018-01-24T05:58:44.081Z,102203.91
2018-01-24T06:01:14.116Z,102209.33
2018-01-24T06:03:43.344Z,102216.35
2018-01-24T06:06:15.986Z,102211.45
2018-01-24T06:08:45.176Z,102207.80
2018-01-24T06:11:15.095Z,102210.94
2018-01-24T06:13:46.694Z,102215.48
2018-01-24T06:16:15.705Z,102224.84
2018-01-24T06:18:45.766Z,102224.00
2018-01-24T06:21:18.216Z,102219.78
2018-01-24T06:23:47.176Z,102222.53
2018-01-24T06:26:16.123Z,102222.14
2018-01-24T06:28:45.939Z,102231.70
2018-01-24T06:31:15.184Z,102225.38
2018-01-24T06:33:44.191Z,102232.24
2018-01-24T06:36:14.045Z,102233.98
2018-01-24T06:38:45.503Z,102245.22
2018-01-24T06:41:19.606Z,102248.33
2018-01-24T06:43:50.547Z,102260.40
2018-01-24T06:46:19.787Z,102266.66
2018-01-24T06:48:53.979Z,102261.20
2018-01-24T06:51:23.164Z,102272.81
2018-01-24T06:53:52.164Z,102259.94
2018-01-24T06:56:21.256Z,102277.21
2018-01-24T06:58:50.267Z,102275.88
2018-01-24T07:01:23.884Z,102274.70
2018-01-24T07:03:53.558Z,102277.52
2018-01-24T07:06:22.801Z,102286.77
2018-01-24T07:08:57.040Z,102296.03
2018-01-24T07:11:26.175Z,102296.81
2018-01-24T07:14:07.458Z,102296.24
2018-01-24T07:16:37.062Z,102301.05
2018-01-24T07:19:05.957Z,102308.62
2018-01-24T07:21:36.688Z,102308.31
2018-01-24T07:24:05.655Z,102317.52
2018-01-24T07:26:36.637Z,102320.12
2018-01-24T07:29:06.695Z,102316.31
2018-01-24T07:31:36.660Z,102326.48
2018-01-24T07:34:06.165Z,102317.75
2018-01-24T07:36:35.928Z,102321.93
2018-01-24T07:39:17.486Z,102316.75
2018-01-24T07:41:46.557Z,102322.16
2018-01-24T07:44:15.502Z,102311.95
2018-01-24T07:46:44.358Z,102317.72
2018-01-24T07:49:13.996Z,102325.98
2018-01-24T07:51:43.316Z,102325.11
2018-01-24T07:54:12.463Z,102337.81
2018-01-24T07:56:41.366Z,102329.47
2018-01-24T07:59:10.254Z,102325.30
2018-01-24T08:01:39.201Z,102326.00
2018-01-24T08:04:09.271Z,102335.42
2018-01-24T08:06:38.099Z,102334.03
2018-01-24T08:09:09.388Z,102344.61
2018-01-24T08:11:41.192Z,102346.07
2018-01-24T08:14:10.021Z,102351.84
2018-01-24T08:16:38.858Z,102345.36
2018-01-24T08:19:07.771Z,102349.64
2018-01-24T08:21:36.732Z,102348.33
2018-01-24T08:24:05.605Z,102354.83
2018-01-24T08:26:35.255Z,102362.01
2018-01-24T08:29:04.761Z,102367.92
2018-01-24T08:31:33.932Z,102366.94
2018-01-24T08:34:03.670Z,102360.39
2018-01-24T08:36:32.865Z,102365.61
2018-01-24T08:39:02.069Z,102359.00
2018-01-24T08:41:31.087Z,102362.30
2018-01-24T08:44:00.229Z,102364.70
2018-01-24T08:46:29.076Z,102366.53
2018-01-24T08:48:59.709Z,102363.09
2018-01-24T08:51:28.947Z,102366.70
2018-01-24T08:53:57.800Z,102359.30
2018-01-24T08:56:26.715Z,102361.63
2018-01-24T08:58:55.556Z,102367.13
2018-01-24T09:01:24.382Z,102370.81
2018-01-24T09:03:54.378Z,102371.08
2018-01-24T09:06:23.162Z,102370.14
2018-01-24T09:08:52.041Z,102375.03
2018-01-24T09:11:26.356Z,102376.88
2018-01-24T09:13:56.035Z,102371.78
2018-01-24T09:16:24.862Z,102366.84
2018-01-24T09:18:53.829Z,102366.89
2018-01-24T09:21:22.774Z,102367.55
2018-01-24T09:23:51.650Z,102356.53
2018-01-24T09:26:20.600Z,102366.66
2018-01-24T09:28:49.422Z,102367.91
2018-01-24T09:31:18.288Z,102365.84
2018-01-24T09:33:48.728Z,102372.69
2018-01-24T11:05:14.554Z,102316.20
2018-01-24T11:07:43.556Z,102307.40
2018-01-24T11:10:12.630Z,102304.28
2018-01-24T11:12:41.559Z,102307.68
2018-01-24T11:15:12.913Z,102291.74
2018-01-24T11:17:41.980Z,102297.55
2018-01-24T11:20:10.933Z,102298.83
2018-01-24T11:22:39.777Z,102291.19
2018-01-24T11:25:08.849Z,102292.19
2018-01-24T11:27:37.854Z,102293.67
2018-01-24T11:30:08.615Z,102299.11
2018-01-24T11:32:37.451Z,102286.28
2018-01-24T11:35:06.227Z,102296.47
2018-01-24T11:37:35.082Z,102290.55
2018-01-24T11:40:03.997Z,102288.88
2018-01-24T11:42:32.847Z,102287.45
2018-01-24T13:21:04.792Z,102289.31
2018-01-24T13:23:33.856Z,102297.50
2018-01-24T13:26:02.859Z,102296.20
2018-01-24T13:28:35.232Z,102293.37
2018-01-24T13:31:04.152Z,102297.11
2018-01-24T13:33:34.890Z,102291.13
2018-01-24T13:36:05.206Z,102298.83
2018-01-24T13:38:34.578Z,102297.09
2018-01-24T13:41:03.578Z,102296.05
2018-01-24T13:43:32.772Z,102296.28
2018-01-24T13:46:02.817Z,102302.50
2018-01-24T13:48:32.074Z,102298.93
2018-01-24T13:51:03.078Z,102306.14
2018-01-24T13:53:32.123Z,102298.43
2018-01-24T13:56:01.904Z,102298.20
2018-01-24T13:58:31.460Z,102302.59
2018-01-24T14:01:01.370Z,102310.86
2018-01-24T14:03:30.574Z,102297.18
2018-01-24T14:06:03.249Z,102312.70
2018-01-24T14:08:32.236Z,102317.45
2018-01-24T14:11:03.019Z,102320.55
2018-01-24T14:13:33.155Z,102330.25
2018-01-24T14:16:02.063Z,102328.02
2018-01-24T14:18:31.164Z,102326.98
2018-01-24T14:21:02.585Z,102332.17
2018-01-24T14:23:31.882Z,102326.31
2018-01-24T14:26:00.985Z,102323.94
2018-01-24T14:28:30.027Z,102332.38
2018-01-24T14:30:59.573Z,102320.92
2018-01-24T14:33:28.630Z,102323.92
2018-01-24T14:35:59.364Z,102330.94
2018-01-24T14:38:28.527Z,102325.19
2018-01-24T14:40:58.128Z,102326.83
2018-01-24T15:31:28.312Z,102335.14
2018-01-24T15:33:57.540Z,102340.64
2018-01-24T15:36:26.617Z,102343.88
2018-01-24T15:38:55.818Z,102345.58
2018-01-24T15:41:24.745Z,102344.59
2018-01-24T15:43:53.778Z,102351.06
2018-01-24T15:46:23.759Z,102349.92
2018-01-24T15:48:52.609Z,102348.63
2018-01-24T15:51:21.446Z,102356.05
2018-01-24T15:53:50.692Z,102356.22
2018-01-24T15:56:19.503Z,102358.12
2018-01-24T15:58:48.517Z,102356.33
2018-01-24T16:01:19.716Z,102357.69
2018-01-24T16:03:48.925Z,102354.53
2018-01-24T16:06:18.032Z,102354.86
2018-01-24T16:08:48.269Z,102366.36
2018-01-24T16:11:17.177Z,102367.98
2018-01-24T16:13:46.155Z,102370.80
2018-01-24T16:16:16.150Z,102371.23
2018-01-24T16:18:45.922Z,102366.75
2018-01-24T16:21:14.734Z,102376.18
2018-01-24T16:23:43.620Z,102371.90
2018-01-24T16:26:12.507Z,102367.70
2018-01-24T16:28:41.436Z,102376.57
2018-01-24T16:31:11.140Z,102383.06
2018-01-24T16:33:39.957Z,102383.98
2018-01-24T16:36:08.873Z,102392.61
2018-01-24T16:38:37.895Z,102390.03
2018-01-24T16:41:07.704Z,102393.72
2018-01-24T16:43:36.532Z,102398.80
2018-01-24T16:46:05.610Z,102399.09
2018-01-24T16:48:34.524Z,102398.48
2018-01-24T16:51:03.849Z,102404.06
2018-01-24T16:53:32.846Z,102410.80
2018-01-24T16:56:02.998Z,102413.01
2018-01-24T16:58:31.883Z,102416.80
2018-01-24T17:01:02.499Z,102415.41
2018-01-24T17:03:31.447Z,102417.79
2018-01-24T17:06:00.844Z,102424.06
2018-01-24T17:08:29.746Z,102424.58
2018-01-24T17:10:59.534Z,102428.21
2018-01-24T17:13:28.414Z,102432.23
2018-01-24T17:15:58.959Z,102433.03
2018-01-24T17:18:27.869Z,102430.80
2018-01-24T17:20:56.729Z,102431.70
2018-01-24T17:23:26.752Z,102440.28
2018-01-24T17:25:55.712Z,102433.31
2018-01-24T17:28:25.778Z,102440.97
2018-01-24T17:30:57.475Z,102440.01
2018-01-24T17:33:26.928Z,102450.34
2018-01-24T17:35:56.973Z,102441.97
2018-01-24T17:38:27.172Z,102446.41
2018-01-24T17:40:58.642Z,102441.30
2018-01-24T17:43:28.762Z,102440.05
2018-01-24T17:45:57.615Z,102444.92
2018-01-24T17:48:26.445Z,102439.02
2018-01-24T17:50:55.299Z,102448.84
2018-01-24T17:53:24.150Z,102443.69
2018-01-24T17:55:52.961Z,102447.05
2018-01-24T17:58:23.106Z,102450.23
2018-01-24T18:00:52.011Z,102439.87
2018-01-24T18:03:20.971Z,102435.79
2018-01-24T18:05:50.121Z,102443.82
2018-01-24T18:08:18.999Z,102446.55
2018-01-24T18:10:47.840Z,102442.11
2018-01-24T18:13:18.399Z,102439.44
2018-01-24T18:15:47.289Z,102446.80
2018-01-24T21:02:41.746Z,102395.24
2018-01-24T21:07:52.669Z,102395.11
2018-01-24T21:10:24.082Z,102402.54
2018-01-24T21:12:53.127Z,102400.80
2018-01-24T21:15:24.495Z,102395.52
2018-01-24T21:17:55.390Z,102390.26
2018-01-24T21:23:00.166Z,102402.23
2018-01-24T21:25:29.277Z,102401.98
2018-01-24T21:27:59.120Z,102400.05
2018-01-24T21:30:34.595Z,102395.27
2018-01-24T21:33:16.593Z,102397.19
2018-01-24T21:35:57.266Z,102393.15
2018-01-24T21:38:27.194Z,102394.73
2018-01-24T21:40:56.165Z,102392.00
2018-01-24T21:43:25.801Z,102384.11
2018-01-24T21:45:54.827Z,102379.19
2018-01-24T21:48:23.684Z,102383.42
2018-01-24T21:50:52.823Z,102379.82
2018-01-24T21:53:24.202Z,102369.06
2018-01-24T21:55:53.267Z,102373.55
2018-01-24T21:58:22.398Z,102382.53
2018-01-24T22:00:51.679Z,102380.35
2018-01-24T22:03:20.657Z,102379.77
2018-01-24T22:05:50.604Z,102380.94
2018-01-24T22:08:20.319Z,102379.14
2018-01-24T22:10:49.273Z,102366.55
2018-01-24T22:13:18.472Z,102364.66
2018-01-24T22:15:47.468Z,102371.61
2018-01-24T22:18:16.769Z,102362.22
2018-01-24T22:20:47.603Z,102365.64
2018-01-24T22:23:19.787Z,102355.76
2018-01-24T22:25:49.794Z,102359.21
2018-01-24T22:28:18.687Z,102354.61
2018-01-24T22:30:47.958Z,102353.59
2018-01-24T22:33:16.931Z,102351.31
2018-01-24T22:35:46.081Z,102350.34
2018-01-24T22:38:16.702Z,102351.47
2018-01-24T22:40:46.026Z,102353.08
2018-01-24T22:43:15.143Z,102340.77
2018-01-24T22:45:44.160Z,102342.75
2018-01-24T22:48:13.107Z,102343.88
2018-01-24T22:50:42.016Z,102342.63
2018-01-24T22:53:11.885Z,102333.92
2018-01-24T22:55:41.956Z,102345.93
2018-01-24T22:58:11.057Z,102331.75
2018-01-24T23:00:43.159Z,102341.14
2018-01-24T23:03:12.339Z,102344.12
2018-01-24T23:05:41.238Z,102344.80
2018-01-24T23:08:12.901Z,102341.19
2018-01-24T23:10:42.910Z,102339.41
2018-01-24T23:13:11.978Z,102346.00
2018-01-24T23:15:41.961Z,102346.03
2018-01-24T23:18:12.081Z,102350.77
2018-01-24T23:33:08.785Z,102333.12
2018-01-24T23:35:37.738Z,102338.33
2018-01-24T23:38:06.789Z,102324.69
2018-01-24T23:40:36.569Z,102322.06
2018-01-24T23:43:05.603Z,102329.28
2018-01-24T23:45:34.747Z,102330.52
2018-01-24T23:48:04.514Z,102337.51
2018-01-24T23:50:34.102Z,102331.23
2018-01-24T23:53:03.936Z,102337.59
2018-01-24T23:55:36.822Z,102328.70
2018-01-24T23:58:05.817Z,102333.16
